Time;durP1;ratioP1;P1;durP2;ratioP2;P2;SDS_P1;SDS_P2;PMS_P1;PMS_P2;Temp;Humidity;BMP_temperature;BMP_pressure;BME280_temperature;BME280_humidity;BME280_pressure;Samples;Min_cycle;Max_cycle;Signal;HPM_P1;HPM_P2
2021/09/21 00:00:04;;;;;;;17.52;11.38;;;;;;;;;;5079719;28;20433;-85
2021/09/21 00:02:30;;;;;;;12.07;10.73;;;;;;;;;;5079157;28;20036;-85
2021/09/21 00:04:56;;;;;;;14.57;11.07;;;;;;;;;;5079841;28;20024;-85
2021/09/21 00:07:22;;;;;;;12.10;10.43;;;;;;;;;;5080332;28;20020;-84
2021/09/21 00:10:05;;;;;;;14.13;10.32;;;;;;;;;;5080360;28;20043;-85
2021/09/21 00:12:31;;;;;;;12.70;10.52;;;;;;;;;;5080349;28;20062;-84
2021/09/21 00:14:57;;;;;;;15.95;10.68;;;;;;;;;;5080319;28;20060;-85
2021/09/21 00:17:23;;;;;;;13.80;10.35;;;;;;;;;;5080236;28;20017;-84
2021/09/21 00:19:49;;;;;;;12.70;9.55;;;;;;;;;;5078764;28;20020;-84
2021/09/21 00:22:15;;;;;;;11.43;9.95;;;;;;;;;;5079849;28;20030;-83
2021/09/21 00:24:41;;;;;;;11.98;9.23;;;;;;;;;;5080125;28;20035;-84
2021/09/21 00:27:07;;;;;;;12.38;9.60;;;;;;;;;;5079731;28;20433;-84
2021/09/21 00:29:33;;;;;;;12.18;9.05;;;;;;;;;;5078787;28;20031;-84
2021/09/21 00:32:00;;;;;;;12.77;8.77;;;;;;;;;;5078372;28;20064;-84
2021/09/21 00:34:34;;;;;;;9.95;8.88;;;;;;;;;;5078980;28;20033;-84
2021/09/21 00:37:00;;;;;;;12.60;8.73;;;;;;;;;;5078619;28;20028;-84
2021/09/21 00:39:26;;;;;;;13.73;10.15;;;;;;;;;;5079566;28;20464;-84
2021/09/21 00:41:54;;;;;;;11.60;9.00;;;;;;;;;;5078702;28;20414;-84
2021/09/21 00:44:20;;;;;;;11.57;8.18;;;;;;;;;;5077615;28;20048;-83
2021/09/21 00:46:47;;;;;;;11.95;8.40;;;;;;;;;;5079220;28;20116;-83
2021/09/21 00:49:13;;;;;;;11.70;8.90;;;;;;;;;;5078432;28;20056;-84
2021/09/21 00:51:39;;;;;;;11.55;8.25;;;;;;;;;;5079649;28;20024;-85
2021/09/21 00:54:05;;;;;;;12.77;8.80;;;;;;;;;;5079134;28;20425;-86
2021/09/21 00:56:32;;;;;;;13.55;9.15;;;;;;;;;;5079649;28;20112;-85
2021/09/21 00:58:58;;;;;;;11.70;9.30;;;;;;;;;;5079119;28;20052;-84
2021/09/21 01:01:24;;;;;;;13.38;9.70;;;;;;;;;;5078415;28;20028;-85
2021/09/21 01:03:50;;;;;;;13.73;9.05;;;;;;;;;;5079249;28;20027;-84
2021/09/21 01:06:16;;;;;;;14.63;9.20;;;;;;;;;;5079044;28;20035;-84
2021/09/21 01:08:42;;;;;;;10.00;9.00;;;;;;;;;;5079315;28;20028;-85
2021/09/21 01:11:10;;;;;;;12.40;8.88;;;;;;;;;;5077952;28;20025;-84
2021/09/21 01:13:36;;;;;;;11.85;9.07;;;;;;;;;;5078936;28;20050;-85
2021/09/21 01:16:06;;;;;;;10.55;8.75;;;;;;;;;;5078113;28;20060;-85
2021/09/21 01:18:32;;;;;;;11.70;8.60;;;;;;;;;;5078866;28;20020;-85
2021/09/21 01:21:09;;;;;;;11.38;8.77;;;;;;;;;;5079048;28;20095;-85
2021/09/21 01:23:49;;;;;;;12.48;8.75;;;;;;;;;;5060991;28;20036;-85
2021/09/21 01:26:15;;;;;;;10.40;8.88;;;;;;;;;;5078673;28;20016;-86
2021/09/21 01:28:41;;;;;;;11.38;8.85;;;;;;;;;;5078995;28;20033;-86
2021/09/21 01:31:08;;;;;;;12.35;8.60;;;;;;;;;;5077798;28;20017;-86
2021/09/21 01:33:34;;;;;;;12.63;9.20;;;;;;;;;;5078334;28;20048;-85
2021/09/21 01:36:00;;;;;;;11.63;8.43;;;;;;;;;;5077282;28;20040;-86
2021/09/21 01:38:26;;;;;;;9.70;8.68;;;;;;;;;;5077463;28;20121;-85
2021/09/21 01:40:52;;;;;;;12.25;9.07;;;;;;;;;;5078699;28;20291;-85
2021/09/21 01:43:18;;;;;;;13.00;9.30;;;;;;;;;;5077926;28;20032;-85
2021/09/21 01:45:44;;;;;;;13.73;9.02;;;;;;;;;;5078563;28;20028;-85
2021/09/21 01:48:10;;;;;;;12.30;8.65;;;;;;;;;;5077945;28;20115;-85
2021/09/21 01:53:18;;;;;;;12.23;8.95;;;;;;;;;;5078464;28;20067;-85
2021/09/21 02:00:57;;;;;;;12.32;9.38;;;;;;;;;;5078551;28;20086;-85
2021/09/21 02:03:23;;;;;;;13.38;9.40;;;;;;;;;;5078237;28;20036;-85
2021/09/21 02:05:49;;;;;;;15.93;10.50;;;;;;;;;;5076328;28;20353;-86
2021/09/21 02:08:15;;;;;;;18.45;10.65;;;;;;;;;;5077796;28;20020;-86
2021/09/21 02:10:41;;;;;;;11.63;9.98;;;;;;;;;;5078124;28;20016;-85
2021/09/21 02:13:07;;;;;;;12.45;10.52;;;;;;;;;;5077974;28;20417;-86
2021/09/21 02:15:34;;;;;;;16.98;10.40;;;;;;;;;;5078145;28;20059;-86
2021/09/21 02:18:00;;;;;;;15.02;10.38;;;;;;;;;;5078352;28;20020;-85
2021/09/21 02:20:27;;;;;;;12.40;10.15;;;;;;;;;;5077912;28;20035;-84
2021/09/21 02:22:53;;;;;;;13.88;9.82;;;;;;;;;;5077922;28;20104;-86
2021/09/21 02:28:23;;;;;;;12.18;9.68;;;;;;;;;;5077929;28;20023;-86
2021/09/21 02:30:49;;;;;;;12.18;10.40;;;;;;;;;;5077748;28;20025;-85
2021/09/21 02:33:15;;;;;;;12.60;10.10;;;;;;;;;;5077500;28;20017;-85
2021/09/21 02:35:41;;;;;;;14.65;10.38;;;;;;;;;;5077695;28;20047;-85
2021/09/21 02:38:08;;;;;;;13.25;10.38;;;;;;;;;;5077894;28;20079;-84
2021/09/21 02:40:34;;;;;;;16.15;11.32;;;;;;;;;;5077321;28;20398;-85
2021/09/21 02:43:00;;;;;;;18.23;11.77;;;;;;;;;;5076502;28;20385;-84
2021/09/21 02:45:26;;;;;;;13.15;11.45;;;;;;;;;;5077168;28;20060;-84
2021/09/21 02:47:52;;;;;;;14.00;11.10;;;;;;;;;;5076644;28;20489;-85
2021/09/21 02:50:18;;;;;;;16.58;11.70;;;;;;;;;;5077730;28;20016;-84
2021/09/21 02:52:44;;;;;;;13.45;10.88;;;;;;;;;;5077564;28;20025;-84
2021/09/21 02:55:10;;;;;;;14.02;11.20;;;;;;;;;;5076286;28;20045;-84
2021/09/21 02:57:37;;;;;;;20.15;12.18;;;;;;;;;;5077356;28;20043;-84
2021/09/21 03:00:05;;;;;;;16.30;12.13;;;;;;;;;;5077473;28;20418;-84
2021/09/21 03:02:32;;;;;;;18.65;11.93;;;;;;;;;;5077277;28;20353;-84
2021/09/21 03:05:03;;;;;;;21.52;12.55;;;;;;;;;;5076398;28;20033;-84
2021/09/21 03:07:40;;;;;;;15.55;12.57;;;;;;;;;;5077363;28;20028;-85
2021/09/21 03:18:03;;;;;;;13.85;11.65;;;;;;;;;;5079089;28;20032;-86
2021/09/21 03:20:29;;;;;;;15.82;12.15;;;;;;;;;;5081470;28;20032;-85
2021/09/21 03:22:55;;;;;;;14.48;11.40;;;;;;;;;;5081185;28;20020;-85
2021/09/21 03:25:24;;;;;;;14.45;11.95;;;;;;;;;;5080866;28;20024;-85
2021/09/21 03:27:50;;;;;;;14.48;12.05;;;;;;;;;;5081179;28;20029;-84
2021/09/21 03:30:16;;;;;;;13.18;11.77;;;;;;;;;;5081135;28;20020;-85
2021/09/21 03:32:42;;;;;;;15.30;11.68;;;;;;;;;;5081024;28;20027;-85
2021/09/21 03:35:09;;;;;;;17.75;11.45;;;;;;;;;;5081236;28;20027;-86
2021/09/21 03:37:35;;;;;;;16.67;12.23;;;;;;;;;;5080597;28;20029;-85
2021/09/21 03:40:01;;;;;;;17.83;11.50;;;;;;;;;;5081092;28;20016;-85
2021/09/21 03:42:27;;;;;;;13.73;11.43;;;;;;;;;;5081122;28;20021;-85
2021/09/21 03:44:53;;;;;;;14.25;11.20;;;;;;;;;;5080141;28;20384;-85
2021/09/21 03:47:19;;;;;;;13.93;11.30;;;;;;;;;;5079853;28;20051;-85
2021/09/21 03:49:45;;;;;;;13.38;11.13;;;;;;;;;;5079676;28;20123;-85
2021/09/21 03:52:12;;;;;;;14.20;10.90;;;;;;;;;;5080946;28;20024;-85
2021/09/21 03:54:38;;;;;;;14.40;10.90;;;;;;;;;;5079669;28;20029;-84
2021/09/21 03:57:04;;;;;;;15.20;11.15;;;;;;;;;;5080914;28;20024;-84
2021/09/21 03:59:30;;;;;;;14.85;11.38;;;;;;;;;;5080573;28;20321;-84
2021/09/21 04:01:57;;;;;;;13.23;11.20;;;;;;;;;;5080360;28;20081;-84
2021/09/21 04:04:23;;;;;;;14.68;10.82;;;;;;;;;;5079418;28;20032;-84
2021/09/21 04:06:49;;;;;;;13.80;10.30;;;;;;;;;;5080296;28;20421;-84
2021/09/21 04:09:15;;;;;;;13.50;11.32;;;;;;;;;;5080632;28;20027;-85
2021/09/21 04:11:41;;;;;;;13.68;10.30;;;;;;;;;;5080524;28;20021;-86
2021/09/21 04:14:07;;;;;;;14.68;10.68;;;;;;;;;;5079410;28;20183;-85
2021/09/21 04:16:33;;;;;;;14.45;10.98;;;;;;;;;;5079193;28;20035;-85
2021/09/21 04:18:59;;;;;;;13.50;10.75;;;;;;;;;;5080361;28;20033;-86
2021/09/21 04:21:26;;;;;;;12.60;9.73;;;;;;;;;;5079303;28;20060;-85
2021/09/21 04:23:52;;;;;;;11.00;9.52;;;;;;;;;;5080245;28;20024;-85
2021/09/21 04:26:18;;;;;;;12.48;9.88;;;;;;;;;;5079778;28;20067;-85
2021/09/21 04:28:45;;;;;;;13.30;10.48;;;;;;;;;;5079547;28;20016;-84
2021/09/21 04:31:13;;;;;;;13.05;10.63;;;;;;;;;;5079283;28;20406;-85
2021/09/21 04:33:40;;;;;;;12.13;10.25;;;;;;;;;;5079100;28;20317;-84
2021/09/21 04:36:07;;;;;;;14.63;10.18;;;;;;;;;;5080102;28;20024;-84
2021/09/21 04:38:34;;;;;;;13.93;10.30;;;;;;;;;;5080050;28;20021;-84
2021/09/21 04:41:00;;;;;;;14.40;10.70;;;;;;;;;;5079985;28;20020;-84
2021/09/21 04:43:26;;;;;;;15.07;11.23;;;;;;;;;;5079708;28;20032;-84
2021/09/21 04:45:52;;;;;;;15.00;12.27;;;;;;;;;;5079289;28;20069;-84
2021/09/21 04:48:19;;;;;;;16.30;13.20;;;;;;;;;;5079614;28;20413;-85
2021/09/21 04:50:45;;;;;;;17.23;12.18;;;;;;;;;;5079585;28;20021;-85
2021/09/21 04:53:12;;;;;;;18.60;13.90;;;;;;;;;;5078674;28;20178;-85
2021/09/21 04:55:38;;;;;;;13.45;11.50;;;;;;;;;;5078594;28;20031;-86
2021/09/21 04:58:04;;;;;;;14.63;11.10;;;;;;;;;;5079043;28;20024;-85
2021/09/21 05:00:30;;;;;;;13.77;10.57;;;;;;;;;;5079150;28;20028;-86
2021/09/21 05:02:56;;;;;;;17.35;11.48;;;;;;;;;;5079773;28;20328;-85
2021/09/21 05:05:23;;;;;;;15.68;11.55;;;;;;;;;;5079519;28;20150;-85
2021/09/21 05:07:49;;;;;;;15.27;11.57;;;;;;;;;;5078306;28;20033;-84
2021/09/21 05:10:16;;;;;;;14.80;11.52;;;;;;;;;;5078154;28;20052;-84
2021/09/21 05:12:42;;;;;;;17.60;10.60;;;;;;;;;;5078026;28;20127;-84
2021/09/21 05:15:08;;;;;;;13.18;11.00;;;;;;;;;;5078779;28;20025;-84
2021/09/21 05:17:34;;;;;;;13.25;11.25;;;;;;;;;;5077882;28;20064;-85
2021/09/21 05:20:01;;;;;;;18.25;11.13;;;;;;;;;;5078702;28;20025;-84
2021/09/21 05:22:27;;;;;;;14.65;11.65;;;;;;;;;;5078910;28;20032;-84
2021/09/21 05:24:53;;;;;;;16.63;11.00;;;;;;;;;;5078807;28;20028;-84
2021/09/21 05:27:19;;;;;;;14.63;11.23;;;;;;;;;;5077639;28;20032;-86
2021/09/21 05:29:45;;;;;;;15.07;10.98;;;;;;;;;;5078708;28;20161;-84
2021/09/21 05:32:11;;;;;;;14.57;11.10;;;;;;;;;;5077988;28;20038;-85
2021/09/21 05:34:37;;;;;;;13.93;11.30;;;;;;;;;;5078712;28;20394;-85
2021/09/21 05:37:03;;;;;;;13.00;10.98;;;;;;;;;;5078999;28;20113;-86
2021/09/21 05:39:29;;;;;;;14.73;12.30;;;;;;;;;;5078478;28;20356;-83
2021/09/21 05:41:55;;;;;;;17.10;11.40;;;;;;;;;;5078036;28;20119;-81
2021/09/21 05:44:23;;;;;;;14.98;12.00;;;;;;;;;;5078010;28;20059;-80
2021/09/21 05:46:49;;;;;;;19.40;13.32;;;;;;;;;;5077953;28;20421;-79
2021/09/21 05:49:16;;;;;;;18.48;13.35;;;;;;;;;;5077994;28;20032;-80
2021/09/21 05:51:42;;;;;;;15.70;11.60;;;;;;;;;;5076864;28;20025;-79
2021/09/21 05:54:08;;;;;;;15.85;11.98;;;;;;;;;;5078245;28;20302;-79
2021/09/21 05:56:34;;;;;;;15.38;11.43;;;;;;;;;;5078019;28;20104;-79
2021/09/21 05:59:00;;;;;;;15.75;11.65;;;;;;;;;;5078045;28;20350;-79
2021/09/21 06:01:27;;;;;;;14.15;11.63;;;;;;;;;;5077730;28;20033;-79
2021/09/21 06:03:53;;;;;;;16.88;12.40;;;;;;;;;;5076707;28;20024;-79
2021/09/21 06:06:19;;;;;;;15.75;12.23;;;;;;;;;;5076665;28;20036;-80
2021/09/21 06:08:45;;;;;;;17.42;12.10;;;;;;;;;;5077920;28;20028;-79
2021/09/21 06:11:11;;;;;;;18.65;13.90;;;;;;;;;;5077661;28;20056;-79
2021/09/21 06:13:37;;;;;;;21.88;14.57;;;;;;;;;;5077436;28;20050;-79
2021/09/21 06:16:03;;;;;;;16.10;11.65;;;;;;;;;;5076333;28;20036;-80
2021/09/21 06:18:29;;;;;;;17.00;11.98;;;;;;;;;;5055980;28;20064;-79
2021/09/21 06:20:55;;;;;;;14.98;11.77;;;;;;;;;;5063345;28;20021;-79
2021/09/21 06:23:21;;;;;;;14.32;12.05;;;;;;;;;;5077442;28;20028;-79
2021/09/21 06:25:47;;;;;;;15.43;12.55;;;;;;;;;;5077216;28;20112;-80
2021/09/21 06:28:13;;;;;;;16.27;12.80;;;;;;;;;;5077429;28;20024;-79
2021/09/21 06:30:40;;;;;;;18.42;12.57;;;;;;;;;;5077508;28;20104;-80
2021/09/21 06:33:06;;;;;;;16.17;12.38;;;;;;;;;;5076304;28;20024;-80
2021/09/21 06:35:32;;;;;;;17.88;12.45;;;;;;;;;;5077305;28;20390;-79
2021/09/21 06:37:58;;;;;;;16.08;13.00;;;;;;;;;;5077134;28;20410;-80
2021/09/21 06:40:26;;;;;;;17.38;13.77;;;;;;;;;;5077136;28;20455;-79
2021/09/21 06:42:52;;;;;;;16.65;13.80;;;;;;;;;;5077158;28;20023;-79
2021/09/21 06:45:18;;;;;;;29.98;22.20;;;;;;;;;;5057348;28;20127;-79
2021/09/21 06:47:44;;;;;;;32.95;26.05;;;;;;;;;;5055920;28;20041;-79
2021/09/21 06:50:11;;;;;;;20.70;13.23;;;;;;;;;;5056212;28;20045;-79
2021/09/21 06:52:37;;;;;;;16.05;12.57;;;;;;;;;;5057669;28;20123;-79
2021/09/21 06:55:04;;;;;;;16.65;12.70;;;;;;;;;;5077239;28;20028;-80
2021/09/21 06:57:30;;;;;;;16.75;12.60;;;;;;;;;;5075834;28;20426;-80
2021/09/21 06:59:57;;;;;;;14.88;12.20;;;;;;;;;;5077067;28;20083;-80
2021/09/21 07:02:24;;;;;;;13.50;12.07;;;;;;;;;;5058048;28;20335;-80
2021/09/21 07:04:50;;;;;;;17.45;12.93;;;;;;;;;;5057014;28;20017;-80
2021/09/21 07:07:17;;;;;;;19.15;13.00;;;;;;;;;;5056948;28;20037;-80
2021/09/21 07:09:43;;;;;;;16.17;12.80;;;;;;;;;;5057078;28;20100;-80
2021/09/21 07:12:09;;;;;;;16.77;12.63;;;;;;;;;;5056052;28;20429;-81
2021/09/21 07:14:35;;;;;;;19.15;13.68;;;;;;;;;;5055859;28;20055;-80
2021/09/21 07:17:01;;;;;;;16.60;12.10;;;;;;;;;;5056807;28;20111;-80
2021/09/21 07:19:27;;;;;;;15.93;12.57;;;;;;;;;;5055670;28;20461;-80
2021/09/21 07:21:53;;;;;;;17.30;13.15;;;;;;;;;;5055717;28;20390;-81
2021/09/21 07:24:19;;;;;;;15.68;13.23;;;;;;;;;;5056155;28;20299;-81
2021/09/21 07:26:48;;;;;;;16.75;12.10;;;;;;;;;;5055810;28;20147;-81
2021/09/21 07:29:14;;;;;;;16.27;12.70;;;;;;;;;;5055877;28;20025;-81
2021/09/21 07:31:40;;;;;;;16.60;13.13;;;;;;;;;;5056551;28;20024;-82
2021/09/21 07:34:06;;;;;;;14.63;12.07;;;;;;;;;;5056640;28;20029;-81
2021/09/21 07:36:32;;;;;;;15.88;12.30;;;;;;;;;;5056804;28;20021;-81
2021/09/21 07:38:58;;;;;;;14.70;12.68;;;;;;;;;;5056585;28;20028;-81
2021/09/21 07:41:25;;;;;;;17.52;12.82;;;;;;;;;;5056690;28;20029;-81
2021/09/21 07:43:51;;;;;;;17.95;12.75;;;;;;;;;;5054975;28;20363;-81
2021/09/21 07:46:17;;;;;;;15.43;11.80;;;;;;;;;;5055450;28;20039;-81
2021/09/21 07:48:43;;;;;;;15.50;12.10;;;;;;;;;;5056480;28;20067;-81
2021/09/21 07:51:09;;;;;;;20.25;12.23;;;;;;;;;;5056569;28;20025;-80
2021/09/21 07:53:36;;;;;;;15.70;11.93;;;;;;;;;;5055353;28;20029;-80
2021/09/21 07:56:02;;;;;;;16.17;12.77;;;;;;;;;;5056238;28;20487;-81
2021/09/21 07:58:28;;;;;;;15.70;12.48;;;;;;;;;;5056609;28;20025;-81
2021/09/21 08:00:55;;;;;;;15.77;12.30;;;;;;;;;;5055369;28;20029;-81
2021/09/21 08:03:21;;;;;;;17.10;11.75;;;;;;;;;;5056500;28;20044;-81
2021/09/21 08:05:47;;;;;;;18.13;11.45;;;;;;;;;;5057740;28;20025;-81
2021/09/21 08:08:16;;;;;;;17.73;12.65;;;;;;;;;;5060223;28;20036;-81
2021/09/21 08:10:42;;;;;;;14.13;12.02;;;;;;;;;;5060179;28;20030;-81
2021/09/21 08:13:08;;;;;;;13.70;11.38;;;;;;;;;;5059746;28;20025;-81
2021/09/21 08:15:34;;;;;;;15.90;11.50;;;;;;;;;;5059812;28;20195;-80
2021/09/21 08:18:01;;;;;;;14.88;11.32;;;;;;;;;;5059712;28;20092;-80
2021/09/21 08:20:28;;;;;;;16.27;12.90;;;;;;;;;;5059771;28;20393;-80
2021/09/21 08:22:55;;;;;;;17.95;11.55;;;;;;;;;;5059695;28;20104;-81
2021/09/21 08:25:21;;;;;;;16.77;12.02;;;;;;;;;;5059665;28;20021;-81
2021/09/21 08:27:47;;;;;;;16.67;12.82;;;;;;;;;;5059671;28;20029;-81
2021/09/21 08:30:14;;;;;;;15.60;11.63;;;;;;;;;;5059585;28;20101;-81
2021/09/21 08:32:41;;;;;;;14.65;12.27;;;;;;;;;;5058729;28;20053;-81
2021/09/21 08:35:07;;;;;;;15.18;11.10;;;;;;;;;;5058476;28;20021;-81
2021/09/21 08:37:33;;;;;;;12.65;10.27;;;;;;;;;;5059554;28;20318;-81
2021/09/21 08:40:00;;;;;;;10.45;9.07;;;;;;;;;;5059347;28;20078;-81
2021/09/21 08:42:26;;;;;;;11.32;8.98;;;;;;;;;;5059268;28;20021;-81
2021/09/21 08:44:52;;;;;;;13.30;8.95;;;;;;;;;;5058255;28;20320;-81
2021/09/21 08:47:19;;;;;;;11.32;8.65;;;;;;;;;;5059044;28;20025;-81
2021/09/21 08:49:46;;;;;;;9.18;7.65;;;;;;;;;;5059385;28;20391;-81
2021/09/21 08:52:12;;;;;;;11.63;8.77;;;;;;;;;;5058436;28;20037;-80
2021/09/21 08:54:38;;;;;;;11.43;8.07;;;;;;;;;;5057997;28;20357;-81
2021/09/21 08:57:05;;;;;;;8.75;6.75;;;;;;;;;;5058295;28;20033;-81
2021/09/21 08:59:32;;;;;;;6.88;5.80;;;;;;;;;;5059074;28;20017;-81
2021/09/21 09:02:03;;;;;;;6.97;5.35;;;;;;;;;;5059006;28;20025;-80
2021/09/21 09:04:30;;;;;;;6.68;5.35;;;;;;;;;;5058769;28;20028;-80
2021/09/21 09:06:58;;;;;;;9.05;4.78;;;;;;;;;;5058799;28;20029;-81
2021/09/21 09:09:25;;;;;;;6.57;4.43;;;;;;;;;;5060581;28;20414;-80
2021/09/21 09:11:59;;;;;;;5.70;4.80;;;;;;;;;;5070002;28;20066;-80
2021/09/21 09:14:25;;;;;;;5.30;4.40;;;;;;;;;;5070955;28;20050;-80
2021/09/21 09:16:55;;;;;;;5.38;3.90;;;;;;;;;;5067026;28;20330;-80
2021/09/21 09:19:21;;;;;;;11.10;8.07;;;;;;;;;;5057907;28;20075;-80
2021/09/21 09:21:49;;;;;;;8.60;6.85;;;;;;;;;;5058587;28;20029;-80
2021/09/21 09:24:15;;;;;;;26.70;19.77;;;;;;;;;;5058888;28;20047;-79
2021/09/21 09:26:43;;;;;;;13.57;10.85;;;;;;;;;;5057365;28;20102;-80
2021/09/21 09:29:13;;;;;;;29.27;21.42;;;;;;;;;;5058542;28;20415;-80
2021/09/21 09:31:40;;;;;;;14.02;9.60;;;;;;;;;;5058319;28;20411;-81
2021/09/21 09:34:08;;;;;;;7.07;5.47;;;;;;;;;;5057273;28;20021;-81
2021/09/21 09:36:54;;;;;;;11.55;8.60;;;;;;;;;;5058439;28;20021;-81
2021/09/21 09:39:24;;;;;;;5.05;4.35;;;;;;;;;;5057148;28;20055;-81
2021/09/21 09:41:52;;;;;;;5.45;4.75;;;;;;;;;;5058030;28;20303;-80
2021/09/21 09:44:19;;;;;;;4.30;3.67;;;;;;;;;;5057901;28;20079;-81
2021/09/21 09:46:49;;;;;;;5.15;3.97;;;;;;;;;;5058021;28;20036;-81
2021/09/21 09:49:19;;;;;;;8.60;5.45;;;;;;;;;;5057013;28;20071;-81
2021/09/21 09:51:49;;;;;;;5.57;4.47;;;;;;;;;;5058117;28;20025;-80
2021/09/21 09:54:15;;;;;;;5.40;3.83;;;;;;;;;;5057885;28;20296;-81
2021/09/21 09:56:42;;;;;;;4.95;3.72;;;;;;;;;;5057998;28;20343;-79
2021/09/21 09:59:09;;;;;;;4.88;3.65;;;;;;;;;;5058203;28;20284;-80
2021/09/21 10:01:35;;;;;;;6.97;4.35;;;;;;;;;;5057781;28;20028;-80
2021/09/21 10:04:02;;;;;;;5.50;4.55;;;;;;;;;;5056974;28;20083;-80
2021/09/21 10:06:29;;;;;;;4.97;4.00;;;;;;;;;;5057822;28;20296;-80
2021/09/21 10:08:56;;;;;;;7.05;3.80;;;;;;;;;;5057972;28;20041;-80
2021/09/21 10:11:22;;;;;;;5.53;4.05;;;;;;;;;;5076104;28;20040;-79
2021/09/21 10:13:48;;;;;;;6.18;4.00;;;;;;;;;;5076929;28;20039;-79
2021/09/21 10:16:14;;;;;;;4.53;3.65;;;;;;;;;;5076881;28;20373;-81
2021/09/21 10:18:44;;;;;;;5.45;3.75;;;;;;;;;;5077370;28;20410;-80
2021/09/21 10:21:10;;;;;;;4.22;3.70;;;;;;;;;;5077675;28;20020;-80
2021/09/21 10:23:39;;;;;;;4.60;3.72;;;;;;;;;;5077440;28;20467;-81
2021/09/21 10:26:18;;;;;;;4.68;4.03;;;;;;;;;;5077271;28;20024;-80
2021/09/21 10:28:49;;;;;;;6.40;4.40;;;;;;;;;;5076950;28;20516;-81
2021/09/21 10:31:16;;;;;;;6.25;3.90;;;;;;;;;;5076288;28;20322;-81
2021/09/21 10:33:42;;;;;;;7.22;4.40;;;;;;;;;;5077316;28;20016;-81
2021/09/21 10:36:35;;;;;;;6.70;3.83;;;;;;;;;;5077228;28;20032;-80
2021/09/21 10:39:09;;;;;;;6.10;4.10;;;;;;;;;;5074216;28;20036;-81
2021/09/21 10:41:45;;;;;;;4.82;4.20;;;;;;;;;;5076158;28;20028;-81
2021/09/21 10:44:11;;;;;;;4.65;3.92;;;;;;;;;;5075498;28;20048;-81
2021/09/21 10:46:44;;;;;;;4.60;4.03;;;;;;;;;;5077159;28;20139;-80
2021/09/21 10:49:22;;;;;;;4.80;4.10;;;;;;;;;;5076895;28;20350;-80
2021/09/21 10:51:48;;;;;;;8.23;4.50;;;;;;;;;;5077302;28;20043;-80
2021/09/21 10:54:15;;;;;;;5.47;4.65;;;;;;;;;;5076929;28;20028;-80
2021/09/21 10:56:41;;;;;;;8.45;4.35;;;;;;;;;;5076924;28;20052;-80
2021/09/21 10:59:14;;;;;;;4.43;3.70;;;;;;;;;;5077265;28;20032;-80
2021/09/21 11:01:47;;;;;;;6.82;4.28;;;;;;;;;;5076872;28;20406;-80
2021/09/21 11:04:13;;;;;;;5.53;3.20;;;;;;;;;;5075899;28;20074;-80
2021/09/21 11:06:43;;;;;;;3.90;3.42;;;;;;;;;;5076066;28;20037;-80
2021/09/21 11:09:09;;;;;;;5.55;3.90;;;;;;;;;;5077089;28;20463;-80
2021/09/21 11:11:35;;;;;;;3.50;2.97;;;;;;;;;;5075598;28;20078;-80
2021/09/21 11:14:02;;;;;;;3.85;3.17;;;;;;;;;;5075580;28;20033;-80
2021/09/21 11:16:28;;;;;;;5.25;3.40;;;;;;;;;;5076790;28;20028;-80
2021/09/21 11:18:56;;;;;;;3.97;3.50;;;;;;;;;;5075816;28;20032;-80
2021/09/21 11:21:22;;;;;;;4.22;3.45;;;;;;;;;;5075711;28;20025;-80
2021/09/21 11:23:48;;;;;;;4.30;3.35;;;;;;;;;;5076901;28;20024;-80
2021/09/21 11:26:15;;;;;;;6.38;4.25;;;;;;;;;;5076796;28;20108;-78
2021/09/21 11:28:46;;;;;;;7.93;4.63;;;;;;;;;;5076616;28;20028;-80
2021/09/21 11:31:12;;;;;;;6.63;5.13;;;;;;;;;;5076705;28;20016;-80
2021/09/21 11:33:40;;;;;;;7.63;5.38;;;;;;;;;;5076635;28;20021;-80
2021/09/21 11:36:11;;;;;;;7.40;5.10;;;;;;;;;;5073237;28;20021;-80
2021/09/21 11:38:41;;;;;;;7.68;5.15;;;;;;;;;;5061324;28;20060;-79
2021/09/21 11:41:08;;;;;;;5.32;4.40;;;;;;;;;;5078008;28;20033;-80
2021/09/21 11:43:34;;;;;;;7.57;4.80;;;;;;;;;;5080032;28;20032;-79
2021/09/21 11:46:00;;;;;;;8.82;4.93;;;;;;;;;;5080065;28;20035;-79
2021/09/21 11:48:27;;;;;;;7.05;5.53;;;;;;;;;;5080440;28;20025;-79
2021/09/21 11:50:54;;;;;;;6.97;5.28;;;;;;;;;;5079185;28;20059;-79
2021/09/21 11:53:21;;;;;;;5.78;5.18;;;;;;;;;;5080315;28;20044;-80
2021/09/21 11:55:50;;;;;;;6.80;4.90;;;;;;;;;;5080440;28;20044;-79
2021/09/21 11:58:16;;;;;;;8.43;3.72;;;;;;;;;;5067624;28;20017;-79
2021/09/21 12:00:44;;;;;;;5.38;4.15;;;;;;;;;;5059826;28;20060;-80
2021/09/21 12:03:13;;;;;;;6.70;4.50;;;;;;;;;;5059760;28;20023;-79
2021/09/21 12:05:41;;;;;;;4.85;4.13;;;;;;;;;;5059759;28;20025;-79
2021/09/21 12:08:09;;;;;;;4.90;4.35;;;;;;;;;;5059586;28;20046;-79
2021/09/21 12:10:37;;;;;;;3.88;3.47;;;;;;;;;;5059634;28;20411;-79
2021/09/21 12:13:17;;;;;;;7.88;3.80;;;;;;;;;;5058289;28;20033;-79
2021/09/21 12:15:44;;;;;;;4.07;3.58;;;;;;;;;;5059447;28;20029;-79
2021/09/21 12:18:12;;;;;;;5.43;3.80;;;;;;;;;;5059645;28;20041;-79
2021/09/21 12:20:38;;;;;;;7.70;4.10;;;;;;;;;;5059499;28;20021;-79
2021/09/21 12:23:05;;;;;;;5.85;3.92;;;;;;;;;;5059381;28;20025;-79
2021/09/21 12:25:32;;;;;;;4.40;3.80;;;;;;;;;;5059234;28;20021;-79
2021/09/21 12:28:00;;;;;;;7.10;4.28;;;;;;;;;;5066717;28;20027;-79
2021/09/21 12:30:30;;;;;;;6.35;4.05;;;;;;;;;;5079507;28;20024;-79
2021/09/21 12:33:04;;;;;;;5.03;3.95;;;;;;;;;;5079383;28;20096;-79
2021/09/21 12:35:32;;;;;;;8.60;4.07;;;;;;;;;;5077669;28;20025;-79
2021/09/21 12:38:06;;;;;;;5.63;4.30;;;;;;;;;;5079160;28;20428;-79
2021/09/21 12:40:32;;;;;;;6.95;4.15;;;;;;;;;;5079065;28;20032;-79
2021/09/21 12:43:02;;;;;;;7.45;4.38;;;;;;;;;;5079068;28;20402;-79
2021/09/21 12:45:28;;;;;;;8.05;5.78;;;;;;;;;;5078637;28;20052;-79
2021/09/21 12:47:54;;;;;;;7.07;4.80;;;;;;;;;;5066091;28;20032;-80
2021/09/21 12:50:21;;;;;;;5.53;4.28;;;;;;;;;;5061281;28;20033;-79
2021/09/21 12:52:50;;;;;;;7.18;4.53;;;;;;;;;;5064755;28;20369;-79
2021/09/21 12:55:37;;;;;;;5.68;4.30;;;;;;;;;;5078676;28;20028;-79
2021/09/21 12:58:04;;;;;;;6.15;4.60;;;;;;;;;;5077424;28;20028;-79
2021/09/21 13:00:34;;;;;;;5.65;4.53;;;;;;;;;;5077885;28;20027;-79
2021/09/21 13:03:01;;;;;;;8.68;5.53;;;;;;;;;;5078666;28;20063;-80
2021/09/21 13:05:27;;;;;;;8.20;4.88;;;;;;;;;;5078662;28;20032;-79
2021/09/21 13:07:53;;;;;;;5.95;4.65;;;;;;;;;;5077586;28;20071;-80
2021/09/21 13:10:19;;;;;;;6.82;5.05;;;;;;;;;;5078435;28;20292;-81
2021/09/21 13:12:53;;;;;;;6.45;5.28;;;;;;;;;;5078651;28;20044;-80
2021/09/21 13:15:19;;;;;;;6.18;5.10;;;;;;;;;;5077150;28;20021;-80
2021/09/21 13:17:45;;;;;;;6.95;4.97;;;;;;;;;;5077363;28;20047;-80
2021/09/21 13:20:11;;;;;;;6.30;5.30;;;;;;;;;;5078750;28;20032;-85
2021/09/21 13:22:37;;;;;;;7.03;5.78;;;;;;;;;;5079026;28;20033;-84
2021/09/21 13:25:03;;;;;;;7.22;5.63;;;;;;;;;;5078989;28;20016;-85
2021/09/21 13:27:30;;;;;;;5.65;5.03;;;;;;;;;;5078337;28;20027;-84
2021/09/21 13:29:56;;;;;;;6.53;4.63;;;;;;;;;;5078198;28;20027;-85
2021/09/21 13:32:23;;;;;;;6.75;4.80;;;;;;;;;;5078399;28;20021;-85
2021/09/21 13:34:49;;;;;;;10.68;6.38;;;;;;;;;;5078488;28;20061;-85
2021/09/21 13:37:15;;;;;;;6.55;5.53;;;;;;;;;;5078500;28;20494;-84
2021/09/21 13:39:41;;;;;;;6.25;5.57;;;;;;;;;;5078626;28;20048;-84
2021/09/21 13:42:07;;;;;;;7.38;5.72;;;;;;;;;;5077183;28;20078;-84
2021/09/21 13:44:33;;;;;;;9.70;5.78;;;;;;;;;;5078182;28;20127;-84
2021/09/21 13:46:59;;;;;;;7.57;5.95;;;;;;;;;;5076950;28;20037;-84
2021/09/21 13:49:25;;;;;;;9.43;6.68;;;;;;;;;;5078486;28;20051;-85
2021/09/21 13:51:51;;;;;;;9.30;5.85;;;;;;;;;;5078313;28;20024;-85
2021/09/21 13:54:17;;;;;;;7.15;6.43;;;;;;;;;;5078464;28;20028;-85
2021/09/21 13:56:43;;;;;;;7.82;6.60;;;;;;;;;;5077209;28;20025;-81
2021/09/21 13:59:10;;;;;;;6.90;6.07;;;;;;;;;;5077898;28;20433;-78
2021/09/21 14:01:36;;;;;;;6.50;5.82;;;;;;;;;;5077605;28;20055;-79
2021/09/21 14:04:02;;;;;;;9.95;6.53;;;;;;;;;;5077218;28;20150;-78
2021/09/21 14:06:28;;;;;;;8.45;6.45;;;;;;;;;;5077470;28;20033;-79
2021/09/21 14:08:54;;;;;;;7.53;6.50;;;;;;;;;;5077785;28;20017;-79
2021/09/21 14:11:21;;;;;;;7.55;6.35;;;;;;;;;;5076586;28;20082;-79
2021/09/21 14:13:47;;;;;;;8.77;6.25;;;;;;;;;;5077439;28;20418;-78
2021/09/21 14:16:13;;;;;;;6.93;6.05;;;;;;;;;;5077601;28;20037;-79
2021/09/21 14:18:39;;;;;;;6.65;5.68;;;;;;;;;;5077370;28;20100;-79
2021/09/21 14:21:06;;;;;;;6.97;5.72;;;;;;;;;;5077585;28;20035;-78
2021/09/21 14:23:32;;;;;;;7.90;6.35;;;;;;;;;;5077408;28;20021;-79
2021/09/21 14:25:58;;;;;;;8.88;6.32;;;;;;;;;;5077310;28;20029;-79
2021/09/21 14:28:24;;;;;;;7.40;6.40;;;;;;;;;;5077637;28;20107;-78
2021/09/21 14:30:51;;;;;;;7.53;6.30;;;;;;;;;;5077493;28;20024;-78
2021/09/21 14:33:17;;;;;;;7.28;6.28;;;;;;;;;;5076003;28;20027;-78
2021/09/21 14:35:44;;;;;;;7.95;6.50;;;;;;;;;;5077442;28;20017;-79
2021/09/21 14:38:10;;;;;;;11.90;6.43;;;;;;;;;;5077444;28;20044;-78
2021/09/21 14:40:37;;;;;;;10.40;6.90;;;;;;;;;;5077583;28;20103;-79
2021/09/21 14:43:03;;;;;;;7.95;6.82;;;;;;;;;;5077134;28;20032;-79
2021/09/21 14:45:30;;;;;;;8.07;6.75;;;;;;;;;;5076899;28;20303;-79